Accueil
METAR-TAF:

METAR-TAF

Aéroports :

Aéroport international Roi-Abdelaziz

Djeddah, Arabie saoudite

latitude: 21-42N, longitude: 039-11E, altitude: 15 m

Observation

Le bulletin a été fait il y a 36 minutes, à 07:00 UTC
Vent 6 kt de nord
Température 25°C
Humidité 65%
Pression 1014 hPa
Visibilité 10 km ou plus
pas de nuages en-dessous de 1500 mètres et pas de cumulonimbus.

METAR: OEJN 230700Z 36006KT CAVOK 25/18 Q1014 NOSIG

Heure: 10:36 (07:36 UTC)

Prévision

Le bulletin a été fait il y a 2 heures et 36 minutes, à 05:00 UTC
Prévision valable du 23 à 06 UTC au 24 à 12 UTC
Vent 13 kt de ouest/nord-ouest
Visibilité 10 km ou plus
Quelques nuages à une hauteur de 4000 ft
Evoluant progressivement
du 23 à 18 UTC au 23 à 20 UTC
Vent 8 kt de nord/nord-est

TAF: OEJN 230500Z 2306/2412 29013KT 9999 FEW040 BECMG 2318/2320 03008KT

Observations et prévisions météorologiques de plus de 4000 aéroports (messages METAR et TAF).

Les stations disponibles sont représentées par des disques jaunes et rouges sur la carte.

Passer la souris dessus pour voir le nom de la station.

Cliquer dessus pour voir les observations et prévisions météorologiques.

Pour changer de carte: cliquez sur les boutons verts avec une croix noire pour zoomer, sur le bouton vert avec un tiret pour effectuer un zoom arrière, ou sur les flèches vertes pour les cartes adjacentes.


METAR-TAF: